»·PEaware :: N6262K KSAN-KSNA

N6262K :: KSAN-KSNA

FLIGHT INFORMATION

Flight Status: Arrived
Operator: Privately registered:
United States
More flights under this callsign
Pilot: Judson K. (15650)
Aircraft: CESSNA 172 SKYHAWK
(C172)
More flights by this aircraft type
Origin: KSAN San Diego Intl-Lindbergh
United States
Destination: KSNA John Wayne-Orange Co
United States
More flights between these airports :: More routes between these airports
Route: OCN V23 SLI
File this flight plan on PilotEdge
Remarks:
Altitude:
(Current/Filed)
5,000ft
Speed:
(Current/Filed)
110kts
Departed: 05-Oct-17 07:51 PM
Arrived: 05-Oct-17 08:38 PM
Distance/Time
Traveled:
66nm/0:47
Distance/Time
To Go:
Arrived

Flight Plot

Page will automatically refresh every two minutes.


Map Options




Map Legend


Flown Route
Filed Route
Departure Airport
Arrival Airport
Navaid (VOR, NDB)
Fix

Horizontal Profiles

Position Reports

Time Latitude Longitude Heading Altitude Ground
Speed
05-Oct-17 19:39 32.735120 -117.189217 207 20ft 0kts
05-Oct-17 19:40 32.735120 -117.189217 207 20ft 0kts
05-Oct-17 19:41 32.735120 -117.189217 207 20ft 0kts
05-Oct-17 19:42 32.735120 -117.189217 207 20ft 0kts
05-Oct-17 19:43 32.735120 -117.189217 207 20ft 0kts
05-Oct-17 19:44 32.735120 -117.189217 207 20ft 0kts
05-Oct-17 19:45 32.735120 -117.189217 207 20ft 0kts
05-Oct-17 19:46 32.735120 -117.189217 207 20ft 0kts
05-Oct-17 19:47 32.735120 -117.189217 207 20ft 0kts
05-Oct-17 19:48 32.735120 -117.189217 207 20ft 0kts
05-Oct-17 19:49 32.735054 -117.189260 208 20ft 3kts
05-Oct-17 19:50 32.733598 -117.185033 105 20ft 21kts
05-Oct-17 19:51 32.731761 -117.177467 106 20ft 19kts
05-Oct-17 19:52 32.731129 -117.175461 232 20ft 0kts
05-Oct-17 19:53 32.730939 -117.175516 142 20ft 0kts
05-Oct-17 19:54 32.730281 -117.175981 284 20ft 24kts
05-Oct-17 19:55 32.738526 -117.198450 317 765ft 81kts
05-Oct-17 19:56 32.754562 -117.215023 317 1829ft 71kts
05-Oct-17 19:57 32.774294 -117.234408 318 2009ft 111kts
05-Oct-17 19:58 32.797909 -117.257927 318 1998ft 110kts
05-Oct-17 19:59 32.821666 -117.281338 318 1999ft 111kts
05-Oct-17 20:00 32.845261 -117.304653 318 1999ft 111kts
05-Oct-17 20:01 32.868655 -117.327984 318 1987ft 105kts
05-Oct-17 20:02 32.890396 -117.350053 319 1988ft 102kts
05-Oct-17 20:03 32.912135 -117.369475 354 2258ft 90kts
05-Oct-17 20:04 32.935019 -117.371140 349 3017ft 78kts
05-Oct-17 20:05 32.956792 -117.373688 348 3806ft 81kts
05-Oct-17 20:06 32.975541 -117.376142 347 4467ft 82kts
05-Oct-17 20:07 32.998283 -117.379337 346 5253ft 82kts
05-Oct-17 20:08 33.025029 -117.383392 346 6005ft 95kts
05-Oct-17 20:09 33.054116 -117.387811 347 6001ft 110kts
05-Oct-17 20:10 33.079731 -117.391714 347 5999ft 112kts
05-Oct-17 20:11 33.100096 -117.394894 347 5998ft 112kts
05-Oct-17 20:12 33.116382 -117.397456 347 5999ft 112kts
05-Oct-17 20:13 33.147773 -117.402425 347 5997ft 114kts
05-Oct-17 20:14 33.178797 -117.407507 347 5989ft 112kts
05-Oct-17 20:15 33.209529 -117.412514 346 5989ft 111kts
05-Oct-17 20:16 33.240189 -117.417509 346 5989ft 111kts
05-Oct-17 20:17 33.263297 -117.435112 307 5998ft 99kts
05-Oct-17 20:18 33.281597 -117.459716 309 5998ft 99kts
05-Oct-17 20:19 33.300465 -117.483356 310 5998ft 99kts
05-Oct-17 20:20 33.319870 -117.506752 311 5998ft 99kts
05-Oct-17 20:21 33.339507 -117.529921 312 5998ft 99kts
05-Oct-17 20:22 33.359233 -117.552925 312 5998ft 99kts
05-Oct-17 20:23 33.379063 -117.575914 311 5999ft 99kts
05-Oct-17 20:24 33.398662 -117.598975 312 5998ft 99kts
05-Oct-17 20:25 33.418505 -117.621826 313 5998ft 99kts
05-Oct-17 20:26 33.438373 -117.644726 313 5998ft 99kts
05-Oct-17 20:27 33.457656 -117.667354 312 5992ft 99kts
05-Oct-17 20:28 33.477652 -117.690487 312 5991ft 100kts
05-Oct-17 20:29 33.497693 -117.713655 311 5991ft 100kts
05-Oct-17 20:30 33.517921 -117.737040 311 5991ft 101kts
05-Oct-17 20:31 33.538314 -117.760637 310 5991ft 102kts
05-Oct-17 20:32 33.558758 -117.784305 310 5991ft 103kts
05-Oct-17 20:33 33.579225 -117.808010 310 5991ft 103kts
05-Oct-17 20:34 33.600019 -117.832053 311 5993ft 107kts
05-Oct-17 20:35 33.630883 -117.832755 11 5388ft 129kts
05-Oct-17 20:36 33.664961 -117.821730 11 4603ft 128kts
05-Oct-17 20:37 33.697502 -117.811478 11 3548ft 113kts
05-Oct-17 20:38 33.723414 -117.814924 297 2443ft 99kts
05-Oct-17 20:39 33.722654 -117.839854 208 1567ft 84kts
05-Oct-17 20:40 33.704372 -117.850610 209 955ft 61kts
05-Oct-17 20:41 33.688969 -117.860398 208 386ft 63kts
05-Oct-17 20:42 33.675192 -117.869141 207 59ft 33kts
05-Oct-17 20:43 33.675229 -117.870645 26 59ft 9kts
05-Oct-17 20:44 33.675512 -117.871123 210 59ft 0kts

Navigation Log

Ident Type
1. KSAN Airport
2. OCN Navaid
3. KELPS Fix
4. DANAH Fix
5. KRAUZ Fix
6. BALBO Fix
7. MIDDS Fix
8. SLI Navaid
9. KSNA Airport